Terminal Aerodrome Forecast
Issued by NWS

Home | Current Version | Previous Version | Text Only | Print | Product List | Glossary On
Versions: 1 2 3 4 5 6 7 8 9 10 11 12 13 14
000
FTUS41 KPHI 282343
TAFMIV
TAF
KMIV 282343Z 2900/2924 VRB03KT P6SM SCT045 BKN100
     FM290600 VRB03KT 4SM BR SKC
      TEMPO 2908/2911 1SM BR SCT010
     FM291300 22008KT P6SM SCT045=

USA.gov is the U.S. government's official web portal to all federal, state and local government web resources and services.